createdAt,value
2022-10-22T00:01:11.835Z,100.00
2022-10-22T00:03:39.725Z,100.00
2022-10-22T00:06:08.253Z,100.00
2022-10-22T00:08:38.157Z,100.00
2022-10-22T00:11:11.161Z,100.00
2022-10-22T00:13:39.174Z,100.00
2022-10-22T00:16:07.423Z,100.00
2022-10-22T00:18:35.383Z,100.00
2022-10-22T00:21:03.703Z,100.00
2022-10-22T00:23:31.627Z,100.00
2022-10-22T00:26:01.167Z,100.00
2022-10-22T00:28:29.075Z,100.00
2022-10-22T00:30:58.016Z,100.00
2022-10-22T00:33:26.077Z,100.00
2022-10-22T00:35:54.098Z,100.00
2022-10-22T00:38:22.228Z,100.00
2022-10-22T00:40:50.531Z,100.00
2022-10-22T00:43:21.524Z,100.00
2022-10-22T00:45:49.582Z,100.00
2022-10-22T00:48:21.895Z,100.00
2022-10-22T00:50:53.218Z,100.00
2022-10-22T00:53:23.854Z,100.00
2022-10-22T00:55:55.653Z,100.00
2022-10-22T00:58:30.072Z,100.00
2022-10-22T01:00:59.442Z,100.00
2022-10-22T01:03:27.368Z,100.00
2022-10-22T01:05:58.046Z,100.00
2022-10-22T01:08:34.039Z,100.00
2022-10-22T01:11:13.667Z,100.00
2022-10-22T01:13:55.077Z,100.00
2022-10-22T01:16:35.448Z,100.00
2022-10-22T01:19:15.135Z,100.00
2022-10-22T01:21:47.335Z,100.00
2022-10-22T01:24:39.073Z,100.00
2022-10-22T01:27:34.160Z,100.00
2022-10-22T01:30:06.333Z,100.00
2022-10-22T01:32:40.653Z,100.00
2022-10-22T01:35:12.352Z,100.00
2022-10-22T01:37:49.872Z,100.00
2022-10-22T01:40:19.931Z,100.00
2022-10-22T01:42:57.375Z,100.00
2022-10-22T01:45:27.677Z,100.00
2022-10-22T01:48:06.070Z,100.00
2022-10-22T01:50:56.205Z,100.00
2022-10-22T01:53:34.132Z,100.00
2022-10-22T01:56:16.292Z,100.00
2022-10-22T01:58:53.795Z,100.00
2022-10-22T02:01:31.326Z,100.00
2022-10-22T02:04:06.660Z,100.00
2022-10-22T02:06:37.232Z,100.00
2022-10-22T02:09:06.839Z,100.00
2022-10-22T02:11:35.446Z,100.00
2022-10-22T02:14:06.112Z,100.00
2022-10-22T02:16:39.012Z,100.00
2022-10-22T02:19:12.853Z,100.00
2022-10-22T02:21:41.043Z,100.00
2022-10-22T02:24:09.334Z,100.00
2022-10-22T02:26:42.990Z,100.00
2022-10-22T02:29:16.025Z,100.00
2022-10-22T02:31:48.187Z,100.00
2022-10-22T02:34:23.394Z,100.00
2022-10-22T02:36:52.645Z,100.00
2022-10-22T02:39:22.106Z,100.00
2022-10-22T02:41:50.394Z,100.00
2022-10-22T02:44:22.422Z,100.00
2022-10-22T02:46:52.053Z,100.00
2022-10-22T02:49:19.987Z,100.00
2022-10-22T02:51:47.886Z,100.00
2022-10-22T02:54:15.894Z,100.00
2022-10-22T02:56:43.814Z,100.00
2022-10-22T02:59:11.736Z,100.00
2022-10-22T03:01:39.679Z,100.00
2022-10-22T03:04:09.069Z,100.00
2022-10-22T03:06:37.042Z,100.00
2022-10-22T03:09:05.060Z,100.00
2022-10-22T03:11:32.966Z,100.00
2022-10-22T03:14:00.893Z,100.00
2022-10-22T03:16:28.869Z,100.00
2022-10-22T03:18:56.772Z,100.00
2022-10-22T03:21:33.244Z,100.00
2022-10-22T03:24:04.180Z,100.00
2022-10-22T03:26:32.851Z,100.00
2022-10-22T03:29:01.939Z,100.00
2022-10-22T03:31:29.859Z,100.00
2022-10-22T03:33:57.874Z,100.00
2022-10-22T03:36:27.368Z,100.00
2022-10-22T03:38:55.447Z,100.00
2022-10-22T03:41:26.019Z,100.00
2022-10-22T03:43:54.932Z,100.00
2022-10-22T03:46:22.842Z,100.00
2022-10-22T03:48:50.871Z,100.00
2022-10-22T03:51:18.753Z,100.00
2022-10-22T03:53:48.197Z,100.00
2022-10-22T03:56:16.148Z,100.00
2022-10-22T03:58:44.139Z,100.00
2022-10-22T04:01:14.039Z,100.00
2022-10-22T04:03:42.598Z,100.00
2022-10-22T04:06:13.281Z,100.00
2022-10-22T04:08:45.647Z,100.00
2022-10-22T04:11:16.696Z,100.00
2022-10-22T04:13:44.767Z,100.00
2022-10-22T04:16:14.900Z,100.00
2022-10-22T04:18:43.327Z,100.00
2022-10-22T04:21:13.542Z,100.00
2022-10-22T04:23:46.215Z,100.00
2022-10-22T04:26:16.778Z,100.00
2022-10-22T04:28:45.402Z,100.00
2022-10-22T04:31:16.478Z,100.00
2022-10-22T04:33:44.441Z,100.00
2022-10-22T04:36:14.889Z,100.00
2022-10-22T04:38:43.743Z,100.00
2022-10-22T04:41:14.200Z,100.00
2022-10-22T04:43:44.431Z,100.00
2022-10-22T04:46:13.696Z,100.00
2022-10-22T04:48:43.235Z,100.00
2022-10-22T04:51:13.527Z,100.00
2022-10-22T04:53:41.581Z,100.00
2022-10-22T04:56:12.395Z,100.00
2022-10-22T04:58:41.234Z,100.00
2022-10-22T05:01:15.819Z,100.00
2022-10-22T05:03:45.821Z,100.00
2022-10-22T05:06:15.307Z,100.00
2022-10-22T05:08:43.631Z,100.00
2022-10-22T05:11:13.600Z,100.00
2022-10-22T05:13:41.491Z,100.00
2022-10-22T05:16:10.093Z,100.00
2022-10-22T05:18:41.242Z,100.00
2022-10-22T05:21:11.511Z,100.00
2022-10-22T05:23:40.283Z,100.00
2022-10-22T05:26:10.673Z,100.00
2022-10-22T05:28:38.753Z,100.00
2022-10-22T05:31:07.681Z,100.00
2022-10-22T05:33:36.140Z,100.00
2022-10-22T05:36:08.282Z,100.00
2022-10-22T05:38:36.770Z,100.00
2022-10-22T05:41:06.905Z,100.00
2022-10-22T05:43:35.695Z,100.00
2022-10-22T05:46:05.469Z,100.00
2022-10-22T05:48:33.951Z,100.00
2022-10-22T05:51:04.595Z,100.00
2022-10-22T05:53:35.197Z,100.00
2022-10-22T05:56:03.901Z,100.00
2022-10-22T05:58:32.719Z,100.00
2022-10-22T06:01:04.747Z,100.00
2022-10-22T06:03:35.147Z,100.00
2022-10-22T06:06:06.267Z,100.00
2022-10-22T06:08:35.687Z,100.00
2022-10-22T06:11:03.620Z,100.00
2022-10-22T06:13:32.919Z,100.00
2022-10-22T06:16:00.891Z,100.00
2022-10-22T06:18:28.822Z,100.00
2022-10-22T06:20:56.846Z,100.00
2022-10-22T06:23:24.864Z,100.00
2022-10-22T06:26:00.793Z,100.00
2022-10-22T06:28:28.718Z,100.00
2022-10-22T06:30:58.681Z,100.00
2022-10-22T06:33:26.690Z,100.00
2022-10-22T06:35:54.700Z,100.00
2022-10-22T06:38:22.702Z,100.00
2022-10-22T06:40:50.610Z,100.00
2022-10-22T06:43:20.900Z,100.00
2022-10-22T06:45:48.868Z,100.00
2022-10-22T06:48:16.843Z,100.00
2022-10-22T06:50:44.746Z,100.00
2022-10-22T06:53:12.688Z,100.00
2022-10-22T06:55:40.820Z,100.00
2022-10-22T06:58:08.712Z,100.00
2022-10-22T07:00:38.203Z,100.00
2022-10-22T07:03:06.116Z,100.00
2022-10-22T07:05:35.306Z,100.00
2022-10-22T07:08:03.231Z,100.00
2022-10-22T07:10:31.407Z,100.00
2022-10-22T07:13:00.168Z,100.00
2022-10-22T07:15:30.757Z,100.00
2022-10-22T07:18:00.035Z,100.00
2022-10-22T07:20:30.525Z,100.00
2022-10-22T07:23:01.352Z,100.00
2022-10-22T07:25:29.272Z,100.00
2022-10-22T07:27:57.223Z,100.00
2022-10-22T07:30:25.128Z,100.00
2022-10-22T07:32:53.163Z,100.00
2022-10-22T07:35:22.457Z,100.00
2022-10-22T07:37:50.358Z,100.00
2022-10-22T07:40:18.742Z,100.00
2022-10-22T07:42:46.708Z,100.00
2022-10-22T07:45:14.922Z,100.00
2022-10-22T07:47:43.885Z,100.00
2022-10-22T07:50:13.422Z,100.00
2022-10-22T07:52:43.393Z,100.00
2022-10-22T07:55:13.007Z,100.00
2022-10-22T07:57:40.986Z,100.00
2022-10-22T08:00:10.701Z,100.00
2022-10-22T08:02:38.879Z,100.00
2022-10-22T08:05:08.167Z,100.00
2022-10-22T08:07:36.221Z,100.00
2022-10-22T08:10:06.024Z,100.00
2022-10-22T08:12:34.594Z,100.00
2022-10-22T08:15:02.533Z,100.00
2022-10-22T08:17:32.984Z,100.00
2022-10-22T08:20:00.954Z,100.00
2022-10-22T08:22:28.971Z,100.00
2022-10-22T08:24:56.969Z,100.00
2022-10-22T08:27:26.320Z,100.00
2022-10-22T08:29:54.195Z,100.00
2022-10-22T08:32:22.270Z,100.00
2022-10-22T08:34:50.531Z,100.00
2022-10-22T08:37:18.631Z,100.00
2022-10-22T08:39:46.720Z,100.00
2022-10-22T08:42:41.505Z,100.00
2022-10-22T08:45:16.471Z,100.00
2022-10-22T08:48:02.415Z,100.00
2022-10-22T08:50:36.809Z,100.00
2022-10-22T08:53:08.947Z,100.00
2022-10-22T08:55:38.810Z,100.00
2022-10-22T08:58:19.000Z,100.00
2022-10-22T09:00:55.766Z,100.00
2022-10-22T09:03:35.388Z,100.00
2022-10-22T09:06:09.935Z,100.00
2022-10-22T09:08:39.188Z,100.00
2022-10-22T09:11:16.117Z,100.00
2022-10-22T09:13:47.042Z,100.00
2022-10-22T09:16:20.694Z,100.00
2022-10-22T09:19:01.341Z,100.00
2022-10-22T09:21:39.729Z,100.00
2022-10-22T09:24:13.627Z,100.00
2022-10-22T09:26:42.631Z,100.00
2022-10-22T09:29:21.186Z,100.00
2022-10-22T09:31:49.307Z,100.00
2022-10-22T09:34:22.246Z,100.00
2022-10-22T09:36:59.496Z,100.00
2022-10-22T09:39:29.511Z,100.00
2022-10-22T09:41:57.627Z,100.00
2022-10-22T09:44:27.513Z,100.00
2022-10-22T09:46:55.635Z,100.00
2022-10-22T09:49:25.285Z,100.00
2022-10-22T09:51:55.805Z,100.00
2022-10-22T09:54:26.520Z,100.00
2022-10-22T09:56:58.392Z,100.00
2022-10-22T09:59:30.759Z,100.00
2022-10-22T10:02:19.478Z,100.00
2022-10-22T10:04:50.213Z,100.00
2022-10-22T10:07:21.086Z,100.00
2022-10-22T10:09:49.557Z,100.00
2022-10-22T10:12:36.943Z,100.00
2022-10-22T10:15:21.479Z,100.00
2022-10-22T10:17:59.738Z,100.00
2022-10-22T10:20:39.114Z,100.00
2022-10-22T10:23:15.049Z,100.00
2022-10-22T10:25:49.795Z,100.00
2022-10-22T10:28:26.276Z,100.00
2022-10-22T10:31:07.567Z,100.00
2022-10-22T10:33:47.703Z,100.00
2022-10-22T10:36:24.450Z,100.00
2022-10-22T10:38:59.918Z,100.00
2022-10-22T10:41:40.819Z,100.00
2022-10-22T10:44:25.703Z,100.00
2022-10-22T10:47:07.371Z,100.00
2022-10-22T10:49:36.956Z,100.00
2022-10-22T10:52:18.829Z,100.00
2022-10-22T10:55:02.660Z,100.00
2022-10-22T10:57:41.048Z,100.00
2022-10-22T11:00:12.944Z,100.00
2022-10-22T11:03:16.221Z,100.00
2022-10-22T11:05:49.644Z,100.00
2022-10-22T11:08:22.638Z,100.00
2022-10-22T11:10:54.550Z,100.00
2022-10-22T11:13:32.733Z,100.00
2022-10-22T11:16:07.611Z,100.00
2022-10-22T11:18:41.789Z,100.00
2022-10-22T11:21:21.968Z,100.00
2022-10-22T11:23:54.599Z,100.00
2022-10-22T11:26:33.158Z,100.00
2022-10-22T11:29:04.466Z,100.00
2022-10-22T11:31:33.688Z,100.00
2022-10-22T11:34:32.092Z,96.41
2022-10-22T11:36:57.627Z,96.32
2022-10-22T11:39:33.102Z,97.69
2022-10-22T11:42:03.210Z,99.27
2022-10-22T11:44:32.565Z,94.88
2022-10-22T11:47:16.139Z,92.16
2022-10-22T11:49:49.036Z,97.50
2022-10-22T11:52:38.347Z,95.23
2022-10-22T11:55:34.863Z,86.45
2022-10-22T11:58:04.129Z,88.61
2022-10-22T12:00:41.608Z,87.17
2022-10-22T12:03:20.679Z,78.15
2022-10-22T12:06:04.545Z,78.02
2022-10-22T12:08:33.862Z,75.22
2022-10-22T12:11:07.756Z,74.05
2022-10-22T12:14:15.742Z,74.88
2022-10-22T12:17:02.499Z,77.40
2022-10-22T12:19:33.538Z,77.55
2022-10-22T12:22:15.130Z,74.54
2022-10-22T12:24:47.413Z,76.43
2022-10-22T12:27:23.372Z,77.26
2022-10-22T12:29:56.576Z,72.95
2022-10-22T12:32:25.464Z,77.71
2022-10-22T12:34:54.030Z,72.39
2022-10-22T12:37:23.340Z,72.28
2022-10-22T12:39:52.487Z,71.99
2022-10-22T12:42:22.372Z,68.90
2022-10-22T12:44:56.781Z,71.71
2022-10-22T12:47:24.897Z,67.13
2022-10-22T12:49:52.877Z,67.51
2022-10-22T12:52:25.822Z,64.65
2022-10-22T12:54:54.924Z,64.94
2022-10-22T12:57:24.756Z,65.96
2022-10-22T12:59:53.191Z,64.67
2022-10-22T13:02:24.447Z,63.64
2022-10-22T13:05:18.870Z,64.19
2022-10-22T13:07:51.236Z,67.64
2022-10-22T13:10:23.932Z,67.42
2022-10-22T13:12:55.245Z,67.50
2022-10-22T13:15:36.991Z,64.83
2022-10-22T13:18:18.359Z,64.37
2022-10-22T13:20:54.421Z,65.54
2022-10-22T13:23:25.574Z,67.23
2022-10-22T13:26:02.236Z,62.39
2022-10-22T13:28:33.791Z,62.17
2022-10-22T13:31:04.462Z,64.32
2022-10-22T13:33:37.152Z,64.69
2022-10-22T13:36:06.551Z,61.20
2022-10-22T13:38:35.834Z,62.20
2022-10-22T13:41:04.926Z,62.23
2022-10-22T13:43:32.867Z,67.18
2022-10-22T13:46:01.647Z,64.95
2022-10-22T13:48:31.089Z,62.41
2022-10-22T13:50:59.197Z,61.46
2022-10-22T13:53:29.475Z,63.09
2022-10-22T13:55:59.334Z,61.94
2022-10-22T13:58:27.235Z,66.22
2022-10-22T14:00:58.104Z,61.96
2022-10-22T14:03:29.642Z,60.95
2022-10-22T14:05:58.191Z,63.46
2022-10-22T14:08:28.235Z,59.24
2022-10-22T14:10:56.249Z,59.94
2022-10-22T14:13:26.617Z,60.02
2022-10-22T14:15:54.567Z,61.36
2022-10-22T14:18:29.058Z,62.09
2022-10-22T14:20:59.961Z,61.62
2022-10-22T14:23:30.016Z,60.72
2022-10-22T14:25:58.514Z,61.73
2022-10-22T14:28:29.660Z,62.73
2022-10-22T14:30:59.871Z,64.76
2022-10-22T14:33:32.118Z,63.93
2022-10-22T14:36:00.687Z,62.08
2022-10-22T14:38:29.619Z,62.66
2022-10-22T14:40:58.551Z,62.68
2022-10-22T14:43:31.040Z,63.32
2022-10-22T14:45:59.523Z,62.96
2022-10-22T14:48:27.504Z,63.57
2022-10-22T14:50:56.278Z,64.10
2022-10-22T14:53:24.167Z,64.41
2022-10-22T14:55:55.476Z,62.63
2022-10-22T14:58:23.451Z,65.00
2022-10-22T15:00:52.968Z,64.51
2022-10-22T15:03:20.982Z,64.75
2022-10-22T15:05:53.888Z,65.68
2022-10-22T15:08:21.906Z,69.36
2022-10-22T15:10:59.101Z,70.26
2022-10-22T15:13:28.424Z,72.24
2022-10-22T15:15:57.849Z,73.28
2022-10-22T15:18:26.503Z,76.41
2022-10-22T15:20:59.197Z,83.84
2022-10-22T15:23:27.772Z,91.39
2022-10-22T15:25:56.472Z,93.94
2022-10-22T15:28:25.162Z,97.12
2022-10-22T15:30:59.109Z,100.00
2022-10-22T15:33:28.202Z,100.00
2022-10-22T15:35:57.058Z,100.00
2022-10-22T15:41:05.359Z,100.00
2022-10-22T15:43:34.104Z,100.00
2022-10-22T15:46:12.423Z,100.00
2022-10-22T15:48:40.568Z,100.00
2022-10-22T15:51:13.693Z,100.00
2022-10-22T15:53:44.660Z,100.00
2022-10-22T15:56:12.780Z,100.00
2022-10-22T15:58:40.775Z,100.00
2022-10-22T16:01:12.070Z,100.00
2022-10-22T16:03:40.845Z,100.00
2022-10-22T16:06:09.840Z,100.00
2022-10-22T16:08:38.275Z,100.00
2022-10-22T16:11:06.921Z,100.00
2022-10-22T16:13:36.987Z,100.00
2022-10-22T16:16:07.523Z,100.00
2022-10-22T16:18:37.254Z,100.00
2022-10-22T16:21:05.392Z,100.00
2022-10-22T16:23:33.336Z,100.00
2022-10-22T16:26:02.985Z,100.00
2022-10-22T16:28:31.812Z,100.00
2022-10-22T16:31:05.941Z,100.00
2022-10-22T16:33:41.510Z,100.00
2022-10-22T16:36:16.575Z,100.00
2022-10-22T16:38:44.819Z,100.00
2022-10-22T16:41:14.701Z,100.00
2022-10-22T16:43:44.238Z,100.00
2022-10-22T16:46:12.548Z,100.00
2022-10-22T16:48:46.263Z,100.00
2022-10-22T16:51:15.823Z,100.00
2022-10-22T16:53:44.551Z,100.00
2022-10-22T16:56:13.234Z,100.00
2022-10-22T16:58:45.918Z,100.00
2022-10-22T17:01:18.284Z,100.00
2022-10-22T17:03:48.525Z,100.00
2022-10-22T17:06:16.618Z,100.00
2022-10-22T17:08:45.158Z,100.00
2022-10-22T17:11:17.037Z,100.00
2022-10-22T17:13:46.063Z,100.00
2022-10-22T17:16:15.970Z,100.00
2022-10-22T17:21:21.134Z,100.00
2022-10-22T17:23:49.622Z,100.00
2022-10-22T17:26:19.767Z,100.00
2022-10-22T17:28:48.152Z,100.00
2022-10-22T17:31:18.297Z,100.00
2022-10-22T17:33:47.613Z,100.00
2022-10-22T17:36:15.872Z,100.00
2022-10-22T17:38:49.207Z,100.00
2022-10-22T17:41:19.406Z,100.00
2022-10-22T17:43:47.989Z,100.00
2022-10-22T17:46:19.451Z,100.00
2022-10-22T17:48:50.691Z,100.00
2022-10-22T17:51:19.902Z,100.00
2022-10-22T17:53:51.363Z,100.00
2022-10-22T17:56:21.416Z,100.00
2022-10-22T17:58:50.049Z,100.00
2022-10-22T18:01:20.180Z,100.00
2022-10-22T18:03:48.290Z,100.00
2022-10-22T18:06:16.512Z,100.00
2022-10-22T18:08:44.814Z,100.00
2022-10-22T18:11:18.345Z,100.00
2022-10-22T18:13:49.966Z,100.00
2022-10-22T18:16:18.843Z,100.00
2022-10-22T18:18:48.125Z,100.00
2022-10-22T18:21:16.376Z,100.00
2022-10-22T18:23:45.130Z,100.00
2022-10-22T18:26:14.732Z,100.00
2022-10-22T18:28:42.668Z,100.00
2022-10-22T18:31:14.211Z,100.00
2022-10-22T18:33:42.173Z,100.00
2022-10-22T18:36:18.988Z,100.00
2022-10-22T18:38:50.474Z,100.00
2022-10-22T18:41:20.773Z,100.00
2022-10-22T18:43:51.881Z,100.00
2022-10-22T18:46:20.071Z,100.00
2022-10-22T18:48:48.719Z,100.00
2022-10-22T18:51:17.268Z,100.00
2022-10-22T18:53:58.917Z,100.00
2022-10-22T18:56:34.844Z,100.00
2022-10-22T18:59:02.770Z,100.00
2022-10-22T19:01:30.826Z,100.00
2022-10-22T19:03:58.786Z,100.00
2022-10-22T19:06:32.004Z,100.00
2022-10-22T19:09:01.710Z,100.00
2022-10-22T19:11:29.740Z,100.00
2022-10-22T19:13:59.311Z,100.00
2022-10-22T19:16:28.588Z,100.00
2022-10-22T19:19:02.483Z,100.00
2022-10-22T19:21:30.945Z,100.00
2022-10-22T19:23:59.681Z,100.00
2022-10-22T19:26:29.543Z,100.00
2022-10-22T19:29:00.242Z,100.00
2022-10-22T19:31:31.262Z,100.00
2022-10-22T19:34:00.951Z,100.00
2022-10-22T19:36:30.260Z,100.00
2022-10-22T19:38:59.518Z,100.00
2022-10-22T19:41:29.493Z,100.00
2022-10-22T19:44:00.489Z,100.00
2022-10-22T19:46:30.192Z,100.00
2022-10-22T19:48:58.175Z,100.00
2022-10-22T19:51:27.946Z,100.00
2022-10-22T19:54:00.012Z,100.00
2022-10-22T19:56:28.470Z,100.00
2022-10-22T19:58:56.628Z,100.00
2022-10-22T20:01:26.564Z,100.00
2022-10-22T20:03:55.184Z,100.00
2022-10-22T20:06:23.240Z,100.00
2022-10-22T20:08:53.883Z,100.00
2022-10-22T20:11:27.827Z,100.00
2022-10-22T20:13:56.756Z,100.00
2022-10-22T20:16:28.787Z,100.00
2022-10-22T20:18:59.903Z,100.00
2022-10-22T20:21:28.264Z,100.00
2022-10-22T20:23:57.543Z,100.00
2022-10-22T20:26:28.240Z,100.00
2022-10-22T20:28:57.071Z,100.00
2022-10-22T20:31:28.759Z,100.00
2022-10-22T20:33:58.702Z,100.00
2022-10-22T20:36:28.815Z,100.00
2022-10-22T20:39:01.648Z,100.00
2022-10-22T20:41:30.130Z,100.00
2022-10-22T20:43:58.601Z,100.00
2022-10-22T20:46:30.247Z,100.00
2022-10-22T20:49:01.242Z,100.00
2022-10-22T20:51:29.415Z,100.00
2022-10-22T20:53:57.571Z,100.00
2022-10-22T20:56:26.040Z,100.00
2022-10-22T20:59:04.287Z,100.00
2022-10-22T21:01:38.488Z,100.00
2022-10-22T21:04:07.081Z,100.00
2022-10-22T21:06:39.092Z,100.00
2022-10-22T21:09:08.404Z,100.00
2022-10-22T21:11:38.186Z,100.00
2022-10-22T21:14:11.434Z,100.00
2022-10-22T21:16:43.656Z,100.00
2022-10-22T21:19:11.614Z,100.00
2022-10-22T21:21:39.747Z,100.00
2022-10-22T21:24:08.167Z,100.00
2022-10-22T21:26:38.170Z,100.00
2022-10-22T21:29:06.198Z,100.00
2022-10-22T21:31:34.459Z,100.00
2022-10-22T21:34:03.975Z,100.00
2022-10-22T21:36:32.409Z,100.00
2022-10-22T21:39:01.921Z,100.00
2022-10-22T21:41:30.161Z,100.00
2022-10-22T21:43:58.247Z,100.00
2022-10-22T21:46:29.108Z,100.00
2022-10-22T21:48:59.187Z,100.00
2022-10-22T21:51:29.764Z,100.00
2022-10-22T21:53:57.976Z,100.00
2022-10-22T21:56:28.677Z,100.00
2022-10-22T21:58:57.216Z,100.00
2022-10-22T22:01:25.492Z,100.00
2022-10-22T22:03:54.208Z,100.00
2022-10-22T22:06:26.270Z,100.00
2022-10-22T22:08:56.907Z,100.00
2022-10-22T22:11:27.282Z,100.00
2022-10-22T22:13:58.335Z,100.00
2022-10-22T22:16:28.780Z,100.00
2022-10-22T22:18:58.094Z,100.00
2022-10-22T22:21:26.296Z,100.00
2022-10-22T22:23:56.245Z,100.00
2022-10-22T22:26:28.737Z,100.00
2022-10-22T22:28:59.035Z,100.00
2022-10-22T22:31:29.334Z,100.00
2022-10-22T22:34:01.221Z,100.00
2022-10-22T22:36:29.261Z,100.00
2022-10-22T22:38:58.558Z,100.00
2022-10-22T22:41:26.707Z,100.00
2022-10-22T22:46:27.826Z,100.00
2022-10-22T22:48:55.877Z,100.00
2022-10-22T22:51:23.876Z,100.00
2022-10-22T22:53:52.130Z,100.00
2022-10-22T22:56:23.254Z,100.00
2022-10-22T22:58:51.417Z,100.00
2022-10-22T23:01:21.903Z,100.00
2022-10-22T23:03:54.138Z,100.00
2022-10-22T23:06:22.185Z,100.00
2022-10-22T23:08:52.068Z,100.00
2022-10-22T23:11:23.019Z,100.00
2022-10-22T23:13:54.076Z,100.00
2022-10-22T23:16:24.225Z,100.00
2022-10-22T23:18:54.090Z,100.00
2022-10-22T23:21:25.535Z,100.00
2022-10-22T23:23:55.741Z,100.00
2022-10-22T23:26:26.859Z,100.00
2022-10-22T23:28:54.924Z,100.00
2022-10-22T23:31:22.855Z,100.00
2022-10-22T23:33:50.926Z,100.00
2022-10-22T23:36:18.843Z,100.00
2022-10-22T23:38:46.791Z,100.00
2022-10-22T23:41:14.693Z,100.00
2022-10-22T23:43:44.011Z,100.00
2022-10-22T23:46:13.577Z,100.00
2022-10-22T23:48:41.852Z,100.00
2022-10-22T23:51:12.330Z,100.00
2022-10-22T23:53:41.273Z,100.00
2022-10-22T23:56:11.259Z,100.00
2022-10-22T23:58:44.184Z,100.00
